• Join FlightAware (Why Join?)
  • Login
  • US Flag 
05:17AM EDT


 

Airport Tracker/Info


-or-


 

Live Flight TrackerFlight Track Log ✈ DAL6225 ✈ 18-Jul-2013 ✈ KMSN - KLGA

Flight Track Log - Related Links

Times and Time Zones

All times are in EDT time to prevent confusion due to time zone crossing. See the DAL6225 flight status page for this flight to view local times or setup timezone preferences in your user account.

Time Position Orientation Groundspeed Altitude Reporting Facility
EDT Latitude Longitude Course Direction KTS MPH feet Rate Location/Type
08:07AM 43.0917 -89.2992 90° East 205 236 3,000  Level Chicago Center
08:08AM 43.0922 -89.1936 90° East 243 280 5,500 2,340 Climbing Chicago Center
08:09AM 43.0933 -89.0869 89° East 281 323 7,900 2,280 Climbing Chicago Center
08:10AM 43.0983 -88.9742 86° East 297 342 10,300 1,980 Climbing Chicago Center
08:11AM 43.1017 -88.8497 88° East 327 376 12,000 1,560 Climbing Chicago Center
08:12AM 43.1058 -88.7108 88° East 363 418 13,600 1,800 Climbing Chicago Center
08:13AM 43.1100 -88.5403 88° East 386 444 15,800 1,920 Climbing Chicago Center
08:14AM 43.1133 -88.3892 88° East 397 457 17,600 1,620 Climbing Chicago Center
08:15AM 43.1172 -88.2369 88° East 403 464 19,200 1,560 Climbing Chicago Center
08:16AM 43.1253 -88.0842 86° East 405 466 20,900 1,620 Climbing Chicago Center
08:17AM 43.1342 -87.9028 86° East 410 472 22,600 1,320 Climbing Chicago Center
08:18AM 43.1408 -87.7419 87° East 421 484 23,700 1,020 Climbing Chicago Center
08:19AM 43.1489 -87.5769 86° East 432 497 24,800 1,080 Climbing Chicago Center
08:20AM 43.1567 -87.4089 86° East 441 507 26,000 1,080 Climbing Chicago Center
08:21AM 43.1633 -87.2378 87° East 448 516 27,100 1,080 Climbing Chicago Center
08:22AM 43.1703 -87.0392 87° East 449 517 28,300 960 Climbing Chicago Center
08:23AM 43.1775 -86.8656 87° East 454 522 29,200 840 Climbing Chicago Center
08:24AM 43.1844 -86.6919 87° East 456 525 30,100 780 Climbing Chicago Center
08:25AM 43.1894 -86.5156 88° East 461 531 30,900 720 Climbing Chicago Center
08:26AM 43.1958 -86.3372 87° East 469 540 31,700 720 Climbing Chicago Center
08:28AM 43.2014 -86.1611 87° East 467 537 32,500 840 Climbing Chicago Center
08:29AM 43.2081 -85.9483 87° East 468 539 33,500 840 Climbing Chicago Center
08:30AM 43.2125 -85.7706 88° East 469 540 34,300 720 Climbing Chicago Center
08:31AM 43.2178 -85.5919 88° East 470 541 35,100 780 Climbing Chicago Center
08:32AM 43.2236 -85.4083 87° East 466 536 36,000 780 Climbing Chicago Center
08:33AM 43.2272 -85.2297 88° East 467 537 36,800 720 Climbing Chicago Center
08:34AM 43.2314 -85.0553 88° East 461 531 37,600 720 Climbing Chicago Center
08:35AM 43.2350 -84.8806 88° East 460 529 38,400 660 Climbing Chicago Center
08:36AM 43.2381 -84.7117 89° East 447 514 39,000 240 Climbing Chicago Center
08:37AM 43.2406 -84.5397 89° East 450 518 39,000  Level Chicago Center
08:38AM 43.2439 -84.3294 89° East 458 527 39,000  Level Chicago Center
08:39AM 43.2469 -84.1539 89° East 460 529 39,000  Level Chicago Center
08:40AM 43.2472 -83.9350 90° East 461 531 39,000  Level Cleveland Center
08:41AM 43.2503 -83.7586 89° East 461 531 39,000  Level Cleveland Center
08:42AM 43.2506 -83.5875 90° East 454 522 39,000  Level Cleveland Center
08:43AM 43.2550 -83.4108 88° East 459 528 39,000  Level Cleveland Center
08:44AM 43.2550 -83.2369 90° East 459 528 39,000  Level Cleveland Center
08:45AM 43.2547 -83.0603 90° East 454 522 39,000  Level Cleveland Center
08:46AM 43.2561 -82.8922 89° East 454 522 39,000  Level Cleveland Center
08:47AM 43.2333 -82.8167 112° Southeast 450 518 39,000  Level Toronto Center
08:47AM 43.2575 -82.7183 71° East 448 516 39,000  Level Cleveland Center
08:48AM 43.2458 -82.5439 95° East 453 521 39,000  Level Cleveland Center
08:49AM 43.2333 -82.4500 100° East 460 529 39,000  Level Toronto Center
08:50AM 43.2167 -82.2667 97° East 460 529 39,000  Level Toronto Center
08:51AM 43.2000 -82.1000 98° East 460 529 39,000  Level Toronto Center
08:52AM 43.1833 -81.9167 97° East 460 529 39,000  Level Toronto Center
08:53AM 43.1833 -81.7333 90° East 470 541 39,000  Level Toronto Center
08:54AM 43.1667 -81.5833 99° East 470 541 39,000  Level Toronto Center
08:55AM 43.1500 -81.4000 97° East 470 541 39,000  Level Toronto Center
08:56AM 43.1333 -81.2167 97° East 470 541 39,000  Level Toronto Center
08:57AM 43.1167 -81.0333 97° East 470 541 39,000  Level Toronto Center
08:58AM 43.1000 -80.8667 98° East 470 541 39,000  Level Toronto Center
08:59AM 43.1000 -80.6833 90° East 470 541 39,000  Level Toronto Center
09:00AM 43.0833 -80.5000 97° East 470 541 39,000  Level Toronto Center
09:01AM 43.0833 -80.3333 90° East 470 541 39,000  Level Toronto Center
09:02AM 43.0500 -80.1333 103° East 470 541 39,000  Level Toronto Center
09:03AM 43.0500 -79.9500 90° East 470 541 39,000  Level Toronto Center
09:04AM 43.0333 -79.8000 99° East 470 541 39,000  Level Toronto Center
09:05AM 43.0167 -79.6167 97° East 470 541 39,000  Level Toronto Center
09:06AM 43.0000 -79.4333 97° East 470 541 39,000  Level Toronto Center
09:07AM 42.9833 -79.2500 97° East 480 552 39,000  Level Toronto Center
09:08AM 42.9667 -79.0667 97° East 470 541 39,000  Level Toronto Center
09:09AM 42.9500 -78.8833 97° East 470 541 39,000  Level Toronto Center
09:10AM 42.9333 -78.7167 98° East 470 541 39,000  Level Toronto Center
09:11AM 42.9192 -78.5222 96° East 474 545 39,000  Level Cleveland Center
09:12AM 42.8992 -78.3442 99° East 474 545 39,000  Level Cleveland Center
09:13AM 42.8811 -78.1664 98° East 469 540 39,000  Level Cleveland Center
09:14AM 42.8647 -77.9914 97° East 469 540 39,000 -120 Level Cleveland Center
09:15AM 42.8436 -77.7967 98° East 469 540 38,800 -660 Descending Cleveland Center
09:16AM 42.8225 -77.6194 99° East 469 540 37,700 -1,020 Descending Cleveland Center
09:17AM 42.7853 -77.3750 102° East 463 533 36,300 -960 Descending Boston Center
09:18AM 42.7614 -77.2033 101° East 469 540 35,300 -1,020 Descending Boston Center
09:19AM 42.7353 -77.0258 101° East 469 540 34,300 -1,020 Descending Boston Center
09:20AM 42.7108 -76.8544 101° East 469 540 33,300 -660 Descending Boston Center
09:21AM 42.6861 -76.6803 101° East 469 540 33,000 -180 Descending Boston Center
09:22AM 42.6611 -76.5092 101° East 469 540 33,000  Level Boston Center
09:23AM 42.6358 -76.3381 101° East 469 540 33,000  Level Boston Center
09:24AM 42.6103 -76.1672 101° East 464 534 33,000  Level Boston Center
09:25AM 42.5864 -75.9964 101° East 464 534 33,000 -360 Level Boston Center
09:26AM 42.5583 -75.8283 103° East 459 528 32,300 -900 Descending Boston Center
09:27AM 42.5319 -75.6578 102° East 459 528 31,300 -1,020 Descending Boston Center
09:28AM 42.5056 -75.4819 101° East 459 528 30,300 -1,020 Descending Boston Center
09:29AM 42.4786 -75.3117 102° East 459 528 29,300 -1,140 Descending Boston Center
09:30AM 42.4328 -75.1492 111° Southeast 459 528 28,100 -1,620 Descending Boston Center
09:31AM 42.3719 -74.9806 116° Southeast 464 534 26,100 -2,160 Descending Boston Center
09:32AM 42.3089 -74.8153 117° Southeast 465 535 23,800 -2,160 Descending Boston Center
09:33AM 42.2536 -74.6617 116° Southeast 459 528 21,800 -2,040 Descending Boston Center
09:34AM 42.1961 -74.5111 117° Southeast 449 517 19,800 -1,860 Descending Boston Center
09:35AM 42.1425 -74.3608 116° Southeast 444 511 18,100 -900 Descending Boston Center
09:36AM 42.0881 -74.2361 120° Southeast 437 503 18,000 -300 Descending Boston Center
09:37AM 41.9875 -74.1411 145° Southeast 398 458 17,600 -480 Descending Boston Center
09:38AM 41.8800 -74.0797 157° South 408 470 17,100 -600 Descending Boston Center
09:39AM 41.7808 -74.0269 158° South 431 496 16,400 -1,920 Descending Boston Center
09:40AM 41.6567 -73.9628 159° South 431 496 13,300 -2,700 Descending Boston Center
09:41AM 41.5633 -73.9161 159° South 414 476 11,100 -1,680 Descending Boston Center
09:43AM 41.4500 -73.8500 156° South 319 367 9,800 -1,440 Descending New York TRACON
09:44AM 41.3667 -73.8167 163° South 301 346 8,100 -900 Descending New York TRACON
09:45AM 41.3000 -73.7667 151° Southeast 296 341 8,000 -60 Descending New York TRACON
09:46AM 41.2333 -73.7000 143° Southeast 300 345 8,000 -240 Level New York TRACON
09:47AM 41.1667 -73.6333 143° Southeast 301 346 7,600 -1,080 Descending New York TRACON
09:48AM 41.1000 -73.6167 169° South 283 326 5,900 -1,440 Descending New York TRACON
09:49AM 41.0333 -73.6667 210° Southwest 247 284 4,800 -840 Descending New York TRACON
09:50AM 40.9833 -73.7000 207° Southwest 224 258 4,300 -600 Descending New York TRACON
09:51AM 40.9333 -73.7500 217° Southwest 199 229 3,700 -1,080 Descending New York TRACON
09:52AM 40.8833 -73.7833 207° Southwest 199 229 2,200 -1,020 Descending New York TRACON
09:53AM 40.8500 -73.8167 217° Southwest 173 199 1,700 -840 Descending New York TRACON
09:54AM 40.8167 -73.8500 217° Southwest 140 161 600 -1,140 Descending New York TRACON
09:56AM 40.7772 -73.8726 180° South  Level Estimated
10:03AM 40.7772 -73.8726 180° South  Level Estimated